sensor_id;sensor_type;location;lat;lon;timestamp;pressure;altitude;pressure_sealevel;temperature;humidity
79752;BME280;69234;47.446;21.636;2023-07-20T00:00:08;99860.56;;;19.19;82.37
79752;BME280;69234;47.446;21.636;2023-07-20T00:00:45;99853.22;;;19.20;81.50
79752;BME280;69234;47.446;21.636;2023-07-20T00:01:16;99855.72;;;19.21;81.36
79752;BME280;69234;47.446;21.636;2023-07-20T00:01:47;99840.59;;;19.12;82.20
79752;BME280;69234;47.446;21.636;2023-07-20T00:02:18;99844.56;;;19.10;82.22
79752;BME280;69234;47.446;21.636;2023-07-20T00:02:51;99855.28;;;19.18;81.95
79752;BME280;69234;47.446;21.636;2023-07-20T00:03:22;99858.22;;;19.16;82.02
79752;BME280;69234;47.446;21.636;2023-07-20T00:03:56;99853.56;;;19.10;82.12
79752;BME280;69234;47.446;21.636;2023-07-20T00:04:27;99856.28;;;19.10;82.47
79752;BME280;69234;47.446;21.636;2023-07-20T00:04:58;99849.63;;;19.13;82.33
79752;BME280;69234;47.446;21.636;2023-07-20T00:05:28;99842.03;;;19.08;82.37
79752;BME280;69234;47.446;21.636;2023-07-20T00:05:59;99838.91;;;19.11;81.67
79752;BME280;69234;47.446;21.636;2023-07-20T00:06:30;99846.53;;;19.22;81.57
79752;BME280;69234;47.446;21.636;2023-07-20T00:07:01;99839.34;;;19.15;82.41
79752;BME280;69234;47.446;21.636;2023-07-20T00:07:32;99834.34;;;19.18;82.16
79752;BME280;69234;47.446;21.636;2023-07-20T00:08:03;99854.09;;;19.27;81.65
79752;BME280;69234;47.446;21.636;2023-07-20T00:08:34;99849.69;;;19.26;81.67
79752;BME280;69234;47.446;21.636;2023-07-20T00:09:05;99837.22;;;19.10;82.28
79752;BME280;69234;47.446;21.636;2023-07-20T00:09:36;99844.78;;;19.15;81.91
79752;BME280;69234;47.446;21.636;2023-07-20T00:10:07;99845.22;;;19.18;81.99
79752;BME280;69234;47.446;21.636;2023-07-20T00:10:41;99844.78;;;19.15;82.51
79752;BME280;69234;47.446;21.636;2023-07-20T00:11:12;99846.06;;;19.12;82.92
79752;BME280;69234;47.446;21.636;2023-07-20T00:11:51;99830.75;;;19.11;82.46
79752;BME280;69234;47.446;21.636;2023-07-20T00:12:22;99838.50;;;19.14;82.41
79752;BME280;69234;47.446;21.636;2023-07-20T00:12:53;99841.88;;;19.16;81.88
79752;BME280;69234;47.446;21.636;2023-07-20T00:13:24;99829.47;;;19.07;82.13
79752;BME280;69234;47.446;21.636;2023-07-20T00:13:55;99837.22;;;19.10;82.16
79752;BME280;69234;47.446;21.636;2023-07-20T00:14:26;99844.34;;;19.11;82.58
79752;BME280;69234;47.446;21.636;2023-07-20T00:14:57;99845.00;;;19.13;81.37
79752;BME280;69234;47.446;21.636;2023-07-20T00:15:27;99842.28;;;19.13;81.17
79752;BME280;69234;47.446;21.636;2023-07-20T00:15:58;99844.75;;;19.08;82.25
79752;BME280;69234;47.446;21.636;2023-07-20T00:16:29;99851.63;;;19.04;82.78
79752;BME280;69234;47.446;21.636;2023-07-20T00:17:00;99836.97;;;18.98;82.70
79752;BME280;69234;47.446;21.636;2023-07-20T00:17:33;99851.28;;;19.14;82.44
79752;BME280;69234;47.446;21.636;2023-07-20T00:18:04;99840.56;;;19.06;81.39
79752;BME280;69234;47.446;21.636;2023-07-20T00:18:35;99848.56;;;19.14;81.97
79752;BME280;69234;47.446;21.636;2023-07-20T00:19:07;99851.06;;;19.09;82.14
79752;BME280;69234;47.446;21.636;2023-07-20T00:19:39;99844.75;;;19.08;82.15
79752;BME280;69234;47.446;21.636;2023-07-20T00:20:11;99851.00;;;19.02;82.75
79752;BME280;69234;47.446;21.636;2023-07-20T00:20:42;99857.06;;;19.04;83.03
79752;BME280;69234;47.446;21.636;2023-07-20T00:21:13;99854.50;;;18.96;82.19
79752;BME280;69234;47.446;21.636;2023-07-20T00:21:43;99849.22;;;18.88;82.80
79752;BME280;69234;47.446;21.636;2023-07-20T00:22:14;99854.69;;;18.94;83.45
79752;BME280;69234;47.446;21.636;2023-07-20T00:22:45;99848.81;;;18.91;83.02
79752;BME280;69234;47.446;21.636;2023-07-20T00:23:16;99856.13;;;18.90;82.87
79752;BME280;69234;47.446;21.636;2023-07-20T00:23:47;99854.25;;;18.91;83.32
79752;BME280;69234;47.446;21.636;2023-07-20T00:24:18;99855.69;;;18.87;83.21
79752;BME280;69234;47.446;21.636;2023-07-20T00:24:49;99850.47;;;18.85;83.36
79752;BME280;69234;47.446;21.636;2023-07-20T00:25:20;99860.13;;;18.88;83.37
79752;BME280;69234;47.446;21.636;2023-07-20T00:25:51;99845.81;;;18.79;82.88
79752;BME280;69234;47.446;21.636;2023-07-20T00:26:22;99852.47;;;18.76;82.81
79752;BME280;69234;47.446;21.636;2023-07-20T00:26:53;99862.19;;;18.86;83.57
79752;BME280;69234;47.446;21.636;2023-07-20T00:27:24;99853.75;;;18.81;82.70
79752;BME280;69234;47.446;21.636;2023-07-20T00:27:56;99858.75;;;18.77;82.87
79752;BME280;69234;47.446;21.636;2023-07-20T00:28:27;99847.03;;;18.76;83.29
79752;BME280;69234;47.446;21.636;2023-07-20T00:28:58;99866.97;;;18.84;83.19
79752;BME280;69234;47.446;21.636;2023-07-20T00:29:29;99869.69;;;18.84;83.35
79752;BME280;69234;47.446;21.636;2023-07-20T00:30:00;99845.75;;;18.72;83.39
79752;BME280;69234;47.446;21.636;2023-07-20T00:30:31;99846.31;;;18.68;83.65
79752;BME280;69234;47.446;21.636;2023-07-20T00:31:02;99865.44;;;18.74;83.81
79752;BME280;69234;47.446;21.636;2023-07-20T00:31:34;99869.63;;;18.77;83.98
79752;BME280;69234;47.446;21.636;2023-07-20T00:32:07;99866.28;;;18.75;83.63
79752;BME280;69234;47.446;21.636;2023-07-20T00:32:38;99866.53;;;18.80;84.13
79752;BME280;69234;47.446;21.636;2023-07-20T00:33:11;99846.78;;;18.71;83.81
79752;BME280;69234;47.446;21.636;2023-07-20T00:33:42;99861.28;;;18.79;84.17
79752;BME280;69234;47.446;21.636;2023-07-20T00:34:13;99859.41;;;18.79;83.99
79752;BME280;69234;47.446;21.636;2023-07-20T00:34:44;99857.53;;;18.80;83.29
79752;BME280;69234;47.446;21.636;2023-07-20T00:35:15;99851.47;;;18.77;83.52
79752;BME280;69234;47.446;21.636;2023-07-20T00:35:46;99857.91;;;18.76;84.58
79752;BME280;69234;47.446;21.636;2023-07-20T00:36:17;99850.41;;;18.79;83.68
79752;BME280;69234;47.446;21.636;2023-07-20T00:36:48;99848.72;;;18.77;84.02
79752;BME280;69234;47.446;21.636;2023-07-20T00:37:19;99840.56;;;18.77;83.49
79752;BME280;69234;47.446;21.636;2023-07-20T00:37:50;99850.00;;;18.82;83.96
79752;BME280;69234;47.446;21.636;2023-07-20T00:38:21;99847.09;;;18.83;83.93
79752;BME280;69234;47.446;21.636;2023-07-20T00:38:52;99842.25;;;18.79;83.82
79752;BME280;69234;47.446;21.636;2023-07-20T00:39:23;99838.47;;;18.80;83.63
79752;BME280;69234;47.446;21.636;2023-07-20T00:39:54;99843.75;;;18.81;83.89
79752;BME280;69234;47.446;21.636;2023-07-20T00:40:25;99840.56;;;18.77;84.61
79752;BME280;69234;47.446;21.636;2023-07-20T00:40:56;99846.41;;;18.74;84.21
79752;BME280;69234;47.446;21.636;2023-07-20T00:41:27;99845.56;;;18.74;84.83
79752;BME280;69234;47.446;21.636;2023-07-20T00:42:00;99857.28;;;18.74;84.05
79752;BME280;69234;47.446;21.636;2023-07-20T00:42:31;99853.97;;;18.79;84.08
79752;BME280;69234;47.446;21.636;2023-07-20T00:43:02;99843.06;;;18.79;84.60
79752;BME280;69234;47.446;21.636;2023-07-20T00:43:34;99857.13;;;18.83;85.01
79752;BME280;69234;47.446;21.636;2023-07-20T00:44:05;99853.38;;;18.84;84.45
79752;BME280;69234;47.446;21.636;2023-07-20T00:44:36;99839.91;;;18.75;84.50
79752;BME280;69234;47.446;21.636;2023-07-20T00:45:07;99857.41;;;18.88;83.48
79752;BME280;69234;47.446;21.636;2023-07-20T00:45:38;99857.78;;;18.85;83.45
79752;BME280;69234;47.446;21.636;2023-07-20T00:46:10;99857.97;;;18.83;83.90
79752;BME280;69234;47.446;21.636;2023-07-20T00:46:41;99853.38;;;18.84;84.01
79752;BME280;69234;47.446;21.636;2023-07-20T00:47:13;99856.75;;;18.86;84.05
79752;BME280;69234;47.446;21.636;2023-07-20T00:47:44;99860.13;;;18.88;84.62
79752;BME280;69234;47.446;21.636;2023-07-20T00:48:16;99868.91;;;18.90;83.46
79752;BME280;69234;47.446;21.636;2023-07-20T00:48:47;99853.75;;;18.81;84.18
79752;BME280;69234;47.446;21.636;2023-07-20T00:49:19;99856.28;;;18.82;84.23
79752;BME280;69234;47.446;21.636;2023-07-20T00:49:53;99865.94;;;18.85;83.61
79752;BME280;69234;47.446;21.636;2023-07-20T00:50:25;99874.34;;;18.90;83.86
79752;BME280;69234;47.446;21.636;2023-07-20T00:50:59;99870.59;;;18.91;83.75
79752;BME280;69234;47.446;21.636;2023-07-20T00:51:31;99864.25;;;18.84;83.38
79752;BME280;69234;47.446;21.636;2023-07-20T00:52:04;99861.59;;;18.90;83.96
79752;BME280;69234;47.446;21.636;2023-07-20T00:52:38;99852.97;;;18.87;83.24
79752;BME280;69234;47.446;21.636;2023-07-20T00:53:12;99863.28;;;18.91;83.49
79752;BME280;69234;47.446;21.636;2023-07-20T00:53:43;99846.25;;;18.83;83.56
79752;BME280;69234;47.446;21.636;2023-07-20T00:54:15;99849.81;;;18.83;84.09
79752;BME280;69234;47.446;21.636;2023-07-20T00:54:47;99857.56;;;18.86;83.33
79752;BME280;69234;47.446;21.636;2023-07-20T00:55:19;99844.56;;;18.82;84.14
79752;BME280;69234;47.446;21.636;2023-07-20T00:55:51;99864.56;;;18.95;84.04
79752;BME280;69234;47.446;21.636;2023-07-20T00:56:22;99861.00;;;18.95;83.83
79752;BME280;69234;47.446;21.636;2023-07-20T00:56:54;99861.84;;;18.95;83.69
79752;BME280;69234;47.446;21.636;2023-07-20T00:57:25;99843.13;;;18.86;83.25
79752;BME280;69234;47.446;21.636;2023-07-20T00:57:58;99845.19;;;18.84;84.25
79752;BME280;69234;47.446;21.636;2023-07-20T00:58:29;99855.97;;;18.92;83.98
79752;BME280;69234;47.446;21.636;2023-07-20T00:59:00;99854.47;;;18.89;83.23
79752;BME280;69234;47.446;21.636;2023-07-20T00:59:33;99845.47;;;18.89;83.82
79752;BME280;69234;47.446;21.636;2023-07-20T01:00:08;99852.59;;;18.90;83.39
79752;BME280;69234;47.446;21.636;2023-07-20T01:00:39;99848.75;;;18.84;83.81
79752;BME280;69234;47.446;21.636;2023-07-20T01:01:10;99850.91;;;18.89;84.29
79752;BME280;69234;47.446;21.636;2023-07-20T01:01:41;99845.66;;;18.87;84.13
79752;BME280;69234;47.446;21.636;2023-07-20T01:02:13;99839.13;;;18.82;83.32
79752;BME280;69234;47.446;21.636;2023-07-20T01:02:45;99840.84;;;18.89;83.68
79752;BME280;69234;47.446;21.636;2023-07-20T01:03:17;99843.97;;;18.86;84.20
79752;BME280;69234;47.446;21.636;2023-07-20T01:03:48;99838.69;;;18.78;84.54
79752;BME280;69234;47.446;21.636;2023-07-20T01:04:20;99837.19;;;18.75;84.62
79752;BME280;69234;47.446;21.636;2023-07-20T01:04:52;99848.31;;;18.81;83.81
79752;BME280;69234;47.446;21.636;2023-07-20T01:05:36;99847.47;;;18.80;84.45
79752;BME280;69234;47.446;21.636;2023-07-20T01:08:05;99850.50;;;18.92;83.45
79752;BME280;69234;47.446;21.636;2023-07-20T01:09:37;99848.81;;;18.91;84.22
79752;BME280;69234;47.446;21.636;2023-07-20T01:11:13;99856.53;;;18.87;83.51
79752;BME280;69234;47.446;21.636;2023-07-20T01:12:13;99855.69;;;18.87;84.97
79752;BME280;69234;47.446;21.636;2023-07-20T01:12:52;99855.06;;;18.85;84.29
79752;BME280;69234;47.446;21.636;2023-07-20T01:13:25;99845.41;;;18.82;84.15
79752;BME280;69234;47.446;21.636;2023-07-20T01:13:58;99854.69;;;18.88;84.65
79752;BME280;69234;47.446;21.636;2023-07-20T01:14:29;99856.59;;;18.94;84.53
79752;BME280;69234;47.446;21.636;2023-07-20T01:15:03;99844.19;;;18.85;84.55
79752;BME280;69234;47.446;21.636;2023-07-20T01:15:34;99847.09;;;18.83;84.41
79752;BME280;69234;47.446;21.636;2023-07-20T01:16:05;99834.47;;;18.75;84.11
79752;BME280;69234;47.446;21.636;2023-07-20T01:16:36;99849.63;;;18.85;85.20
79752;BME280;69234;47.446;21.636;2023-07-20T01:17:07;99847.28;;;18.82;85.23
79752;BME280;69234;47.446;21.636;2023-07-20T01:17:38;99846.50;;;18.88;84.09
79752;BME280;69234;47.446;21.636;2023-07-20T01:18:10;99846.31;;;18.89;84.37
79752;BME280;69234;47.446;21.636;2023-07-20T01:18:41;99844.63;;;18.88;84.21
79752;BME280;69234;47.446;21.636;2023-07-20T01:19:13;99850.06;;;18.88;84.16
79752;BME280;69234;47.446;21.636;2023-07-20T01:19:45;99851.09;;;18.87;84.35
79752;BME280;69234;47.446;21.636;2023-07-20T01:20:19;99853.38;;;18.84;84.50
79752;BME280;69234;47.446;21.636;2023-07-20T01:20:55;99847.47;;;18.80;84.58
79752;BME280;69234;47.446;21.636;2023-07-20T01:21:43;99858.81;;;18.84;84.55
79752;BME280;69234;47.446;21.636;2023-07-20T01:30:24;99834.13;;;18.85;84.32
79752;BME280;69234;47.446;21.636;2023-07-20T01:31:21;99843.78;;;18.88;84.25
79752;BME280;69234;47.446;21.636;2023-07-20T01:31:54;99834.13;;;18.85;84.30
79752;BME280;69234;47.446;21.636;2023-07-20T01:32:29;99828.47;;;18.87;85.22
79752;BME280;69234;47.446;21.636;2023-07-20T01:33:02;99836.66;;;18.87;85.40
79752;BME280;69234;47.446;21.636;2023-07-20T01:33:34;99840.03;;;18.89;85.01
79752;BME280;69234;47.446;21.636;2023-07-20T01:34:09;99831.19;;;18.87;84.74
79752;BME280;69234;47.446;21.636;2023-07-20T01:34:44;99829.53;;;18.86;84.72
79752;BME280;69234;47.446;21.636;2023-07-20T01:35:19;99831.19;;;18.87;85.38
79752;BME280;69234;47.446;21.636;2023-07-20T01:35:59;99842.69;;;18.82;85.02
79752;BME280;69234;47.446;21.636;2023-07-20T01:36:37;99838.09;;;18.83;84.92
79752;BME280;69234;47.446;21.636;2023-07-20T01:37:10;99835.41;;;18.89;85.23
79752;BME280;69234;47.446;21.636;2023-07-20T01:37:47;99838.13;;;18.89;84.57
79752;BME280;69234;47.446;21.636;2023-07-20T01:38:19;99832.91;;;18.88;84.28
79752;BME280;69234;47.446;21.636;2023-07-20T01:38:53;99819.63;;;18.78;84.37
79752;BME280;69234;47.446;21.636;2023-07-20T01:39:25;99828.63;;;18.79;84.71
79752;BME280;69234;47.446;21.636;2023-07-20T01:39:58;99833.69;;;18.82;84.70
79752;BME280;69234;47.446;21.636;2023-07-20T01:40:30;99819.38;;;18.73;84.57
79752;BME280;69234;47.446;21.636;2023-07-20T01:41:02;99821.25;;;18.72;85.12
79752;BME280;69234;47.446;21.636;2023-07-20T01:41:33;99819.28;;;18.66;85.01
79752;BME280;69234;47.446;21.636;2023-07-20T01:42:05;99823.06;;;18.65;84.71
79752;BME280;69234;47.446;21.636;2023-07-20T01:42:36;99829.78;;;18.69;85.42
79752;BME280;69234;47.446;21.636;2023-07-20T01:43:07;99815.88;;;18.58;85.24
79752;BME280;69234;47.446;21.636;2023-07-20T01:43:38;99826.81;;;18.64;85.39
79752;BME280;69234;47.446;21.636;2023-07-20T01:44:09;99820.50;;;18.57;84.59
79752;BME280;69234;47.446;21.636;2023-07-20T01:44:42;99816.44;;;18.53;84.93
79752;BME280;69234;47.446;21.636;2023-07-20T01:45:13;99815.81;;;18.51;85.14
79752;BME280;69234;47.446;21.636;2023-07-20T01:45:45;99822.50;;;18.48;85.48
79752;BME280;69234;47.446;21.636;2023-07-20T01:46:18;99824.16;;;18.49;85.89
79752;BME280;69234;47.446;21.636;2023-07-20T01:46:49;99819.16;;;18.46;85.29
79752;BME280;69234;47.446;21.636;2023-07-20T01:47:20;99820.44;;;18.50;85.50
79752;BME280;69234;47.446;21.636;2023-07-20T01:47:51;99824.16;;;18.49;85.83
79752;BME280;69234;47.446;21.636;2023-07-20T01:48:22;99806.31;;;18.40;85.26
79752;BME280;69234;47.446;21.636;2023-07-20T01:48:53;99812.97;;;18.38;85.07
79752;BME280;69234;47.446;21.636;2023-07-20T01:49:25;99817.75;;;18.36;85.08
79752;BME280;69234;47.446;21.636;2023-07-20T01:49:56;99809.50;;;18.22;86.34
79752;BME280;69234;47.446;21.636;2023-07-20T01:50:26;99823.56;;;18.26;85.90
79752;BME280;69234;47.446;21.636;2023-07-20T01:50:58;99805.28;;;18.20;86.25
79752;BME280;69234;47.446;21.636;2023-07-20T01:51:29;99822.72;;;18.25;85.42
79752;BME280;69234;47.446;21.636;2023-07-20T01:51:59;99814.88;;;18.16;85.95
79752;BME280;69234;47.446;21.636;2023-07-20T01:52:30;99812.47;;;18.06;86.51
79752;BME280;69234;47.446;21.636;2023-07-20T01:53:02;99801.97;;;18.03;85.91
79752;BME280;69234;47.446;21.636;2023-07-20T01:53:32;99806.59;;;18.02;85.83
79752;BME280;69234;47.446;21.636;2023-07-20T01:54:04;99827.56;;;18.09;86.22
79752;BME280;69234;47.446;21.636;2023-07-20T01:54:34;99818.28;;;18.03;86.09
79752;BME280;69234;47.446;21.636;2023-07-20T01:55:06;99811.34;;;18.00;86.99
79752;BME280;69234;47.446;21.636;2023-07-20T01:55:37;99820.94;;;17.96;86.49
79752;BME280;69234;47.446;21.636;2023-07-20T01:56:08;99822.16;;;17.94;87.08
79752;BME280;69234;47.446;21.636;2023-07-20T01:56:40;99818.81;;;17.92;87.55
79752;BME280;69234;47.446;21.636;2023-07-20T01:57:11;99804.69;;;17.81;86.79
79752;BME280;69234;47.446;21.636;2023-07-20T01:57:42;99816.00;;;17.85;86.98
79752;BME280;69234;47.446;21.636;2023-07-20T01:58:13;99814.25;;;17.77;88.35
79752;BME280;69234;47.446;21.636;2023-07-20T01:58:44;99822.88;;;17.81;88.17
79752;BME280;69234;47.446;21.636;2023-07-20T01:59:15;99816.97;;;17.77;88.51
79752;BME280;69234;47.446;21.636;2023-07-20T01:59:46;99825.59;;;17.81;87.93
79752;BME280;69234;47.446;21.636;2023-07-20T02:00:18;99814.34;;;17.84;87.76
79752;BME280;69234;47.446;21.636;2023-07-20T02:00:51;99820.16;;;17.81;88.22
79752;BME280;69234;47.446;21.636;2023-07-20T02:01:24;99818.44;;;17.80;87.70
79752;BME280;69234;47.446;21.636;2023-07-20T02:01:55;99817.22;;;17.82;87.90
79752;BME280;69234;47.446;21.636;2023-07-20T02:02:27;99819.78;;;17.84;87.50
79752;BME280;69234;47.446;21.636;2023-07-20T02:03:01;99812.84;;;17.81;87.31
79752;BME280;69234;47.446;21.636;2023-07-20T02:03:32;99820.78;;;17.83;88.22
79752;BME280;69234;47.446;21.636;2023-07-20T02:04:03;99804.41;;;17.76;87.68
79752;BME280;69234;47.446;21.636;2023-07-20T02:04:34;99804.69;;;17.81;87.76
79752;BME280;69234;47.446;21.636;2023-07-20T02:05:05;99806.09;;;17.77;87.52
79752;BME280;69234;47.446;21.636;2023-07-20T02:05:36;99810.72;;;17.77;88.87
79752;BME280;69234;47.446;21.636;2023-07-20T02:06:07;99808.44;;;17.80;88.90
79752;BME280;69234;47.446;21.636;2023-07-20T02:06:38;99813.41;;;17.77;87.53
79752;BME280;69234;47.446;21.636;2023-07-20T02:07:09;99814.88;;;17.79;88.39
79752;BME280;69234;47.446;21.636;2023-07-20T02:07:40;99814.88;;;17.79;88.78
79752;BME280;69234;47.446;21.636;2023-07-20T02:08:11;99806.63;;;17.73;88.69
79752;BME280;69234;47.446;21.636;2023-07-20T02:08:42;99809.47;;;17.79;87.83
79752;BME280;69234;47.446;21.636;2023-07-20T02:09:13;99806.84;;;17.71;88.25
79752;BME280;69234;47.446;21.636;2023-07-20T02:09:45;99814.59;;;17.74;88.60
79752;BME280;69234;47.446;21.636;2023-07-20T02:10:16;99806.63;;;17.73;89.29
79752;BME280;69234;47.446;21.636;2023-07-20T02:10:48;99812.84;;;17.81;88.49
79752;BME280;69234;47.446;21.636;2023-07-20T02:11:19;99806.47;;;17.74;89.33
79752;BME280;69234;47.446;21.636;2023-07-20T02:11:50;99809.28;;;17.81;88.93
79752;BME280;69234;47.446;21.636;2023-07-20T02:12:21;99811.34;;;17.79;89.15
79752;BME280;69234;47.446;21.636;2023-07-20T02:12:53;99815.09;;;17.78;89.29
79752;BME280;69234;47.446;21.636;2023-07-20T02:13:24;99822.41;;;17.77;88.94
79752;BME280;69234;47.446;21.636;2023-07-20T02:13:54;99801.78;;;17.68;88.37
79752;BME280;69234;47.446;21.636;2023-07-20T02:14:27;99816.50;;;17.74;88.87
79752;BME280;69234;47.446;21.636;2023-07-20T02:14:58;99808.72;;;17.71;88.07
79752;BME280;69234;47.446;21.636;2023-07-20T02:15:29;99812.91;;;17.73;89.44
79752;BME280;69234;47.446;21.636;2023-07-20T02:16:00;99809.56;;;17.71;88.36
79752;BME280;69234;47.446;21.636;2023-07-20T02:16:31;99800.28;;;17.66;88.19
79752;BME280;69234;47.446;21.636;2023-07-20T02:17:01;99808.50;;;17.72;88.51
79752;BME280;69234;47.446;21.636;2023-07-20T02:17:33;99804.03;;;17.65;89.10
79752;BME280;69234;47.446;21.636;2023-07-20T02:18:04;99809.56;;;17.71;88.73
79752;BME280;69234;47.446;21.636;2023-07-20T02:18:38;99804.50;;;17.68;89.24
79752;BME280;69234;47.446;21.636;2023-07-20T02:19:09;99811.22;;;17.72;88.89
79752;BME280;69234;47.446;21.636;2023-07-20T02:19:41;99817.50;;;17.73;89.31
79752;BME280;69234;47.446;21.636;2023-07-20T02:20:12;99805.78;;;17.72;89.30
79752;BME280;69234;47.446;21.636;2023-07-20T02:20:43;99807.47;;;17.73;89.51
79752;BME280;69234;47.446;21.636;2023-07-20T02:21:14;99811.06;;;17.74;89.88
79752;BME280;69234;47.446;21.636;2023-07-20T02:21:45;99786.53;;;17.67;89.69
79752;BME280;69234;47.446;21.636;2023-07-20T02:22:16;99807.28;;;17.75;89.16
79752;BME280;69234;47.446;21.636;2023-07-20T02:22:47;99804.75;;;17.73;89.37
79752;BME280;69234;47.446;21.636;2023-07-20T02:23:18;99786.06;;;17.64;89.12
79752;BME280;69234;47.446;21.636;2023-07-20T02:23:49;99801.41;;;17.71;88.81
79752;BME280;69234;47.446;21.636;2023-07-20T02:24:20;99800.56;;;17.71;89.52
79752;BME280;69234;47.446;21.636;2023-07-20T02:24:51;99799.53;;;17.72;90.09
79752;BME280;69234;47.446;21.636;2023-07-20T02:25:22;99794.28;;;17.70;89.24
79752;BME280;69234;47.446;21.636;2023-07-20T02:25:53;99791.59;;;17.70;89.03
79752;BME280;69234;47.446;21.636;2023-07-20T02:26:24;99782.09;;;17.66;89.13
79752;BME280;69234;47.446;21.636;2023-07-20T02:26:55;99795.69;;;17.66;89.19
79752;BME280;69234;47.446;21.636;2023-07-20T02:27:26;99791.97;;;17.67;90.18
79752;BME280;69234;47.446;21.636;2023-07-20T02:27:57;99788.41;;;17.67;89.41
79752;BME280;69234;47.446;21.636;2023-07-20T02:28:28;99793.63;;;17.68;89.19
79752;BME280;69234;47.446;21.636;2023-07-20T02:28:59;99797.38;;;17.67;89.42
79752;BME280;69234;47.446;21.636;2023-07-20T02:29:30;99789.41;;;17.66;89.53
79752;BME280;69234;47.446;21.636;2023-07-20T02:30:02;99795.88;;;17.65;90.41
79752;BME280;69234;47.446;21.636;2023-07-20T02:30:34;99800.75;;;17.69;90.02
79752;BME280;69234;47.446;21.636;2023-07-20T02:31:05;99797.56;;;17.66;90.03
79752;BME280;69234;47.446;21.636;2023-07-20T02:31:36;99797.78;;;17.64;90.26
79752;BME280;69234;47.446;21.636;2023-07-20T02:32:09;99795.69;;;17.66;90.26
79752;BME280;69234;47.446;21.636;2023-07-20T02:32:42;99811.34;;;17.64;90.62
79752;BME280;69234;47.446;21.636;2023-07-20T02:33:16;99805.91;;;17.64;90.52
79752;BME280;69234;47.446;21.636;2023-07-20T02:33:47;99817.41;;;17.66;91.14
79752;BME280;69234;47.446;21.636;2023-07-20T02:34:18;99812.66;;;17.68;90.99
79752;BME280;69234;47.446;21.636;2023-07-20T02:34:50;99803.78;;;17.59;91.08
79752;BME280;69234;47.446;21.636;2023-07-20T02:35:21;99814.06;;;17.64;91.21
79752;BME280;69234;47.446;21.636;2023-07-20T02:35:52;99824.94;;;17.64;90.37
79752;BME280;69234;47.446;21.636;2023-07-20T02:36:23;99816.94;;;17.63;90.68
79752;BME280;69234;47.446;21.636;2023-07-20T02:36:55;99828.09;;;17.68;91.04
79752;BME280;69234;47.446;21.636;2023-07-20T02:37:31;99829.78;;;17.69;91.38
79752;BME280;69234;47.446;21.636;2023-07-20T02:38:03;99823.88;;;17.65;90.64
79752;BME280;69234;47.446;21.636;2023-07-20T02:38:34;99826.97;;;17.62;91.71
79752;BME280;69234;47.446;21.636;2023-07-20T02:39:05;99829.16;;;17.67;90.86
79752;BME280;69234;47.446;21.636;2023-07-20T02:39:36;99829.97;;;17.67;91.65
79752;BME280;69234;47.446;21.636;2023-07-20T02:40:07;99839.22;;;17.73;91.22
79752;BME280;69234;47.446;21.636;2023-07-20T02:40:39;99829.59;;;17.70;90.80
79752;BME280;69234;47.446;21.636;2023-07-20T02:41:10;99836.34;;;17.74;90.65
79752;BME280;69234;47.446;21.636;2023-07-20T02:41:41;99840.94;;;17.74;91.40
79752;BME280;69234;47.446;21.636;2023-07-20T02:42:12;99837.75;;;17.70;90.98
79752;BME280;69234;47.446;21.636;2023-07-20T02:42:43;99838.38;;;17.72;91.88
79752;BME280;69234;47.446;21.636;2023-07-20T02:43:14;99834.63;;;17.73;90.83
79752;BME280;69234;47.446;21.636;2023-07-20T02:43:45;99838.22;;;17.74;91.10
79752;BME280;69234;47.446;21.636;2023-07-20T02:44:16;99846.38;;;17.74;91.17
79752;BME280;69234;47.446;21.636;2023-07-20T02:44:47;99853.13;;;17.78;91.80
79752;BME280;69234;47.446;21.636;2023-07-20T02:45:19;99846.47;;;17.80;90.95
79752;BME280;69234;47.446;21.636;2023-07-20T02:45:50;99845.63;;;17.80;90.88
79752;BME280;69234;47.446;21.636;2023-07-20T02:46:21;99855.94;;;17.85;90.77
79752;BME280;69234;47.446;21.636;2023-07-20T02:46:52;99847.50;;;17.79;91.02
79752;BME280;69234;47.446;21.636;2023-07-20T02:47:23;99856.94;;;17.83;90.82
79752;BME280;69234;47.446;21.636;2023-07-20T02:47:54;99851.47;;;17.77;91.63
79752;BME280;69234;47.446;21.636;2023-07-20T02:48:25;99844.16;;;17.77;91.94
79752;BME280;69234;47.446;21.636;2023-07-20T02:48:56;99847.13;;;17.82;90.55
79752;BME280;69234;47.446;21.636;2023-07-20T02:49:27;99846.06;;;17.83;91.04
79752;BME280;69234;47.446;21.636;2023-07-20T02:49:58;99858.19;;;17.81;91.82
79752;BME280;69234;47.446;21.636;2023-07-20T02:50:29;99850.22;;;17.79;91.06
79752;BME280;69234;47.446;21.636;2023-07-20T02:51:00;99856.47;;;17.80;92.16
79752;BME280;69234;47.446;21.636;2023-07-20T02:51:31;99858.34;;;17.79;91.27
79752;BME280;69234;47.446;21.636;2023-07-20T02:52:02;99852.28;;;17.77;91.83
79752;BME280;69234;47.446;21.636;2023-07-20T02:52:33;99855.00;;;17.77;91.17
79752;BME280;69234;47.446;21.636;2023-07-20T02:53:04;99847.50;;;17.79;91.42
79752;BME280;69234;47.446;21.636;2023-07-20T02:53:35;99848.75;;;17.77;91.41
79752;BME280;69234;47.446;21.636;2023-07-20T02:54:06;99849.91;;;17.74;92.46
79752;BME280;69234;47.446;21.636;2023-07-20T02:54:37;99848.53;;;17.78;92.13
79752;BME280;69234;47.446;21.636;2023-07-20T02:55:09;99850.22;;;17.79;91.86
79752;BME280;69234;47.446;21.636;2023-07-20T02:55:40;99849.38;;;17.79;91.12
79752;BME280;69234;47.446;21.636;2023-07-20T02:56:11;99857.34;;;17.80;91.29
79752;BME280;69234;47.446;21.636;2023-07-20T02:56:42;99852.75;;;17.81;90.97
79752;BME280;69234;47.446;21.636;2023-07-20T02:57:12;99857.53;;;17.79;90.86
79752;BME280;69234;47.446;21.636;2023-07-20T02:57:43;99854.31;;;17.75;91.43
79752;BME280;69234;47.446;21.636;2023-07-20T02:58:15;99845.25;;;17.68;91.42
79752;BME280;69234;47.446;21.636;2023-07-20T02:58:46;99854.69;;;17.72;91.72